sensor_id;sensor_type;location;lat;lon;timestamp;P1;durP1;ratioP1;P2;durP2;ratioP2
24161;SDS011;12318;51.262;7.066;2022-11-23T00:03:42;7.85;;;1.77;;
24161;SDS011;12318;51.262;7.066;2022-11-23T00:06:09;11.77;;;1.70;;
24161;SDS011;12318;51.262;7.066;2022-11-23T00:08:35;7.50;;;1.45;;
24161;SDS011;12318;51.262;7.066;2022-11-23T00:11:01;13.85;;;2.40;;
24161;SDS011;12318;51.262;7.066;2022-11-23T00:13:27;8.10;;;1.85;;
24161;SDS011;12318;51.262;7.066;2022-11-23T00:15:53;11.05;;;2.00;;
24161;SDS011;12318;51.262;7.066;2022-11-23T00:18:19;16.27;;;2.20;;
24161;SDS011;12318;51.262;7.066;2022-11-23T00:20:44;9.50;;;1.80;;
24161;SDS011;12318;51.262;7.066;2022-11-23T00:23:10;9.25;;;1.67;;
24161;SDS011;12318;51.262;7.066;2022-11-23T00:25:36;15.05;;;2.25;;
24161;SDS011;12318;51.262;7.066;2022-11-23T00:28:02;7.45;;;1.83;;
24161;SDS011;12318;51.262;7.066;2022-11-23T00:30:28;9.25;;;1.95;;
24161;SDS011;12318;51.262;7.066;2022-11-23T00:32:54;8.32;;;1.80;;
24161;SDS011;12318;51.262;7.066;2022-11-23T00:35:21;10.50;;;1.83;;
24161;SDS011;12318;51.262;7.066;2022-11-23T00:37:47;5.82;;;1.48;;
24161;SDS011;12318;51.262;7.066;2022-11-23T00:40:12;7.63;;;1.60;;
24161;SDS011;12318;51.262;7.066;2022-11-23T00:42:38;6.88;;;1.70;;
24161;SDS011;12318;51.262;7.066;2022-11-23T00:45:07;10.13;;;1.90;;
24161;SDS011;12318;51.262;7.066;2022-11-23T00:47:33;6.68;;;1.48;;
24161;SDS011;12318;51.262;7.066;2022-11-23T00:49:58;5.22;;;1.35;;
24161;SDS011;12318;51.262;7.066;2022-11-23T00:52:24;8.77;;;1.90;;
24161;SDS011;12318;51.262;7.066;2022-11-23T00:54:50;7.35;;;1.33;;
24161;SDS011;12318;51.262;7.066;2022-11-23T00:57:16;5.75;;;1.27;;
24161;SDS011;12318;51.262;7.066;2022-11-23T00:59:41;5.45;;;1.38;;
24161;SDS011;12318;51.262;7.066;2022-11-23T01:02:07;4.75;;;1.33;;
24161;SDS011;12318;51.262;7.066;2022-11-23T01:04:33;8.50;;;1.92;;
24161;SDS011;12318;51.262;7.066;2022-11-23T01:06:59;6.07;;;1.50;;
24161;SDS011;12318;51.262;7.066;2022-11-23T01:09:25;6.53;;;1.25;;
24161;SDS011;12318;51.262;7.066;2022-11-23T01:11:54;7.53;;;1.80;;
24161;SDS011;12318;51.262;7.066;2022-11-23T01:14:20;6.10;;;1.17;;
24161;SDS011;12318;51.262;7.066;2022-11-23T01:16:46;6.53;;;1.80;;
24161;SDS011;12318;51.262;7.066;2022-11-23T01:19:13;7.55;;;1.42;;
24161;SDS011;12318;51.262;7.066;2022-11-23T01:21:41;6.10;;;1.30;;
24161;SDS011;12318;51.262;7.066;2022-11-23T01:24:15;5.50;;;1.30;;
24161;SDS011;12318;51.262;7.066;2022-11-23T01:26:49;6.90;;;1.23;;
24161;SDS011;12318;51.262;7.066;2022-11-23T01:29:18;6.43;;;1.27;;
24161;SDS011;12318;51.262;7.066;2022-11-23T01:31:44;10.05;;;1.83;;
24161;SDS011;12318;51.262;7.066;2022-11-23T01:34:10;7.47;;;1.80;;
24161;SDS011;12318;51.262;7.066;2022-11-23T01:36:40;7.55;;;1.55;;
24161;SDS011;12318;51.262;7.066;2022-11-23T01:39:06;5.63;;;1.40;;
24161;SDS011;12318;51.262;7.066;2022-11-23T01:41:36;7.90;;;1.35;;
24161;SDS011;12318;51.262;7.066;2022-11-23T01:46:57;6.10;;;1.27;;
24161;SDS011;12318;51.262;7.066;2022-11-23T01:49:24;5.45;;;1.13;;
24161;SDS011;12318;51.262;7.066;2022-11-23T01:51:52;7.57;;;1.63;;
24161;SDS011;12318;51.262;7.066;2022-11-23T01:54:26;6.20;;;1.20;;
24161;SDS011;12318;51.262;7.066;2022-11-23T01:57:00;7.82;;;1.63;;
24161;SDS011;12318;51.262;7.066;2022-11-23T01:59:34;7.47;;;1.30;;
24161;SDS011;12318;51.262;7.066;2022-11-23T02:02:00;10.10;;;1.48;;
24161;SDS011;12318;51.262;7.066;2022-11-23T02:04:31;3.80;;;1.13;;
24161;SDS011;12318;51.262;7.066;2022-11-23T02:07:01;9.63;;;1.40;;
24161;SDS011;12318;51.262;7.066;2022-11-23T02:09:30;6.28;;;1.30;;
24161;SDS011;12318;51.262;7.066;2022-11-23T02:11:59;8.43;;;1.48;;
24161;SDS011;12318;51.262;7.066;2022-11-23T02:14:25;7.88;;;1.45;;
24161;SDS011;12318;51.262;7.066;2022-11-23T02:16:51;5.70;;;1.20;;
24161;SDS011;12318;51.262;7.066;2022-11-23T02:19:28;11.88;;;1.40;;
24161;SDS011;12318;51.262;7.066;2022-11-23T02:22:03;9.00;;;1.67;;
24161;SDS011;12318;51.262;7.066;2022-11-23T02:24:37;7.15;;;1.50;;
24161;SDS011;12318;51.262;7.066;2022-11-23T02:27:06;5.18;;;1.40;;
24161;SDS011;12318;51.262;7.066;2022-11-23T02:29:34;8.13;;;1.55;;
24161;SDS011;12318;51.262;7.066;2022-11-23T02:32:00;5.57;;;1.25;;
24161;SDS011;12318;51.262;7.066;2022-11-23T02:34:26;7.20;;;1.45;;
24161;SDS011;12318;51.262;7.066;2022-11-23T02:36:52;7.93;;;1.35;;
24161;SDS011;12318;51.262;7.066;2022-11-23T02:39:24;6.47;;;1.40;;
24161;SDS011;12318;51.262;7.066;2022-11-23T02:41:57;8.93;;;1.50;;
24161;SDS011;12318;51.262;7.066;2022-11-23T02:47:10;7.80;;;1.95;;
24161;SDS011;12318;51.262;7.066;2022-11-23T02:49:37;5.35;;;1.45;;
24161;SDS011;12318;51.262;7.066;2022-11-23T02:52:04;10.65;;;2.03;;
24161;SDS011;12318;51.262;7.066;2022-11-23T02:54:30;9.30;;;1.60;;
24161;SDS011;12318;51.262;7.066;2022-11-23T02:56:56;10.02;;;1.77;;
24161;SDS011;12318;51.262;7.066;2022-11-23T02:59:22;7.72;;;1.98;;
24161;SDS011;12318;51.262;7.066;2022-11-23T03:01:48;10.07;;;2.25;;
24161;SDS011;12318;51.262;7.066;2022-11-23T03:04:14;8.13;;;1.70;;
24161;SDS011;12318;51.262;7.066;2022-11-23T03:06:40;9.32;;;1.65;;
24161;SDS011;12318;51.262;7.066;2022-11-23T03:09:06;9.80;;;2.10;;
24161;SDS011;12318;51.262;7.066;2022-11-23T03:11:32;13.15;;;2.13;;
24161;SDS011;12318;51.262;7.066;2022-11-23T03:13:58;9.23;;;1.95;;
24161;SDS011;12318;51.262;7.066;2022-11-23T03:16:24;12.65;;;2.30;;
24161;SDS011;12318;51.262;7.066;2022-11-23T03:18:50;15.43;;;2.40;;
24161;SDS011;12318;51.262;7.066;2022-11-23T03:21:16;10.15;;;1.73;;
24161;SDS011;12318;51.262;7.066;2022-11-23T03:23:42;9.20;;;2.03;;
24161;SDS011;12318;51.262;7.066;2022-11-23T03:26:08;14.07;;;2.40;;
24161;SDS011;12318;51.262;7.066;2022-11-23T03:28:33;8.20;;;2.55;;
24161;SDS011;12318;51.262;7.066;2022-11-23T03:31:01;13.75;;;2.80;;
24161;SDS011;12318;51.262;7.066;2022-11-23T03:33:27;14.05;;;2.95;;
24161;SDS011;12318;51.262;7.066;2022-11-23T03:35:53;11.13;;;2.60;;
24161;SDS011;12318;51.262;7.066;2022-11-23T03:38:20;14.68;;;2.75;;
24161;SDS011;12318;51.262;7.066;2022-11-23T03:40:46;16.42;;;3.08;;
24161;SDS011;12318;51.262;7.066;2022-11-23T03:43:12;9.82;;;2.42;;
24161;SDS011;12318;51.262;7.066;2022-11-23T03:45:39;15.20;;;2.85;;
24161;SDS011;12318;51.262;7.066;2022-11-23T03:48:05;18.13;;;3.10;;
24161;SDS011;12318;51.262;7.066;2022-11-23T03:50:31;13.40;;;3.45;;
24161;SDS011;12318;51.262;7.066;2022-11-23T03:52:57;14.48;;;2.95;;
24161;SDS011;12318;51.262;7.066;2022-11-23T03:55:24;12.40;;;2.97;;
24161;SDS011;12318;51.262;7.066;2022-11-23T03:57:50;15.45;;;3.05;;
24161;SDS011;12318;51.262;7.066;2022-11-23T04:00:18;15.88;;;3.47;;
24161;SDS011;12318;51.262;7.066;2022-11-23T04:02:45;13.38;;;3.30;;
24161;SDS011;12318;51.262;7.066;2022-11-23T04:05:12;20.15;;;3.78;;
24161;SDS011;12318;51.262;7.066;2022-11-23T04:07:38;15.50;;;3.35;;
24161;SDS011;12318;51.262;7.066;2022-11-23T04:10:04;13.60;;;3.15;;
24161;SDS011;12318;51.262;7.066;2022-11-23T04:12:30;16.42;;;3.53;;
24161;SDS011;12318;51.262;7.066;2022-11-23T04:14:56;18.60;;;4.15;;
24161;SDS011;12318;51.262;7.066;2022-11-23T04:17:21;20.25;;;3.58;;
24161;SDS011;12318;51.262;7.066;2022-11-23T04:19:47;14.45;;;3.63;;
24161;SDS011;12318;51.262;7.066;2022-11-23T04:22:13;18.02;;;3.15;;
24161;SDS011;12318;51.262;7.066;2022-11-23T04:24:39;11.63;;;2.92;;
24161;SDS011;12318;51.262;7.066;2022-11-23T04:27:04;18.20;;;3.08;;
24161;SDS011;12318;51.262;7.066;2022-11-23T04:29:30;18.50;;;3.22;;
24161;SDS011;12318;51.262;7.066;2022-11-23T04:31:56;17.75;;;3.40;;
24161;SDS011;12318;51.262;7.066;2022-11-23T04:34:22;16.23;;;3.05;;
24161;SDS011;12318;51.262;7.066;2022-11-23T04:36:47;14.13;;;2.97;;
24161;SDS011;12318;51.262;7.066;2022-11-23T04:39:13;11.55;;;3.08;;
24161;SDS011;12318;51.262;7.066;2022-11-23T04:41:39;15.90;;;3.70;;
24161;SDS011;12318;51.262;7.066;2022-11-23T04:44:05;14.57;;;2.78;;
24161;SDS011;12318;51.262;7.066;2022-11-23T04:46:31;16.15;;;2.60;;
24161;SDS011;12318;51.262;7.066;2022-11-23T04:48:57;14.05;;;2.70;;
24161;SDS011;12318;51.262;7.066;2022-11-23T04:51:22;18.00;;;2.97;;
24161;SDS011;12318;51.262;7.066;2022-11-23T04:53:51;16.25;;;2.80;;
24161;SDS011;12318;51.262;7.066;2022-11-23T04:56:17;11.02;;;2.20;;
24161;SDS011;12318;51.262;7.066;2022-11-23T04:58:42;16.73;;;3.03;;
24161;SDS011;12318;51.262;7.066;2022-11-23T05:01:08;18.13;;;3.17;;
24161;SDS011;12318;51.262;7.066;2022-11-23T05:03:34;9.88;;;2.30;;
24161;SDS011;12318;51.262;7.066;2022-11-23T05:06:00;13.93;;;2.63;;
24161;SDS011;12318;51.262;7.066;2022-11-23T05:08:28;16.20;;;2.75;;
24161;SDS011;12318;51.262;7.066;2022-11-23T05:10:54;13.45;;;2.35;;
24161;SDS011;12318;51.262;7.066;2022-11-23T05:13:24;13.05;;;2.47;;
24161;SDS011;12318;51.262;7.066;2022-11-23T05:15:50;12.70;;;2.67;;
24161;SDS011;12318;51.262;7.066;2022-11-23T05:18:15;13.95;;;2.30;;
24161;SDS011;12318;51.262;7.066;2022-11-23T05:20:41;12.30;;;2.20;;
24161;SDS011;12318;51.262;7.066;2022-11-23T05:23:07;12.50;;;2.30;;
24161;SDS011;12318;51.262;7.066;2022-11-23T05:25:34;20.63;;;2.95;;
24161;SDS011;12318;51.262;7.066;2022-11-23T05:27:59;12.98;;;2.60;;
24161;SDS011;12318;51.262;7.066;2022-11-23T05:30:25;13.30;;;2.38;;
24161;SDS011;12318;51.262;7.066;2022-11-23T05:32:51;12.30;;;2.67;;
24161;SDS011;12318;51.262;7.066;2022-11-23T05:35:17;9.10;;;2.13;;
24161;SDS011;12318;51.262;7.066;2022-11-23T05:37:43;14.20;;;2.15;;
24161;SDS011;12318;51.262;7.066;2022-11-23T05:40:08;13.45;;;2.38;;
24161;SDS011;12318;51.262;7.066;2022-11-23T05:42:35;13.20;;;2.25;;
24161;SDS011;12318;51.262;7.066;2022-11-23T05:45:01;12.02;;;2.28;;
24161;SDS011;12318;51.262;7.066;2022-11-23T05:47:27;18.50;;;2.40;;
24161;SDS011;12318;51.262;7.066;2022-11-23T05:49:53;13.18;;;2.83;;
24161;SDS011;12318;51.262;7.066;2022-11-23T05:52:19;15.38;;;2.45;;
24161;SDS011;12318;51.262;7.066;2022-11-23T05:54:45;14.48;;;2.40;;
24161;SDS011;12318;51.262;7.066;2022-11-23T05:57:10;13.27;;;2.30;;
24161;SDS011;12318;51.262;7.066;2022-11-23T05:59:36;13.85;;;2.25;;
24161;SDS011;12318;51.262;7.066;2022-11-23T06:02:02;11.30;;;2.47;;
24161;SDS011;12318;51.262;7.066;2022-11-23T06:04:28;13.07;;;2.72;;
24161;SDS011;12318;51.262;7.066;2022-11-23T06:06:54;11.73;;;2.40;;
24161;SDS011;12318;51.262;7.066;2022-11-23T06:09:21;13.38;;;2.42;;
24161;SDS011;12318;51.262;7.066;2022-11-23T06:11:47;13.05;;;2.28;;
24161;SDS011;12318;51.262;7.066;2022-11-23T06:14:13;11.63;;;2.65;;
24161;SDS011;12318;51.262;7.066;2022-11-23T06:16:39;14.57;;;2.50;;
24161;SDS011;12318;51.262;7.066;2022-11-23T06:19:04;14.63;;;2.40;;
24161;SDS011;12318;51.262;7.066;2022-11-23T06:21:30;11.80;;;2.13;;
24161;SDS011;12318;51.262;7.066;2022-11-23T06:23:56;15.63;;;2.60;;
24161;SDS011;12318;51.262;7.066;2022-11-23T06:26:22;16.42;;;2.72;;
24161;SDS011;12318;51.262;7.066;2022-11-23T06:28:49;14.00;;;2.40;;
24161;SDS011;12318;51.262;7.066;2022-11-23T06:31:15;16.92;;;3.20;;
24161;SDS011;12318;51.262;7.066;2022-11-23T06:33:40;16.65;;;2.70;;
24161;SDS011;12318;51.262;7.066;2022-11-23T06:36:08;16.70;;;2.72;;
24161;SDS011;12318;51.262;7.066;2022-11-23T06:38:35;19.27;;;3.03;;
24161;SDS011;12318;51.262;7.066;2022-11-23T06:41:01;19.33;;;3.42;;
24161;SDS011;12318;51.262;7.066;2022-11-23T06:43:28;16.80;;;3.40;;
24161;SDS011;12318;51.262;7.066;2022-11-23T06:45:54;15.88;;;2.35;;
24161;SDS011;12318;51.262;7.066;2022-11-23T06:48:21;15.88;;;2.25;;
24161;SDS011;12318;51.262;7.066;2022-11-23T06:50:47;12.40;;;2.70;;
24161;SDS011;12318;51.262;7.066;2022-11-23T06:53:13;14.05;;;2.80;;
24161;SDS011;12318;51.262;7.066;2022-11-23T06:55:40;19.50;;;2.92;;
24161;SDS011;12318;51.262;7.066;2022-11-23T06:58:07;16.67;;;3.00;;
24161;SDS011;12318;51.262;7.066;2022-11-23T07:00:33;12.18;;;2.03;;
24161;SDS011;12318;51.262;7.066;2022-11-23T07:02:59;13.55;;;2.42;;
24161;SDS011;12318;51.262;7.066;2022-11-23T07:05:25;15.98;;;2.58;;
24161;SDS011;12318;51.262;7.066;2022-11-23T07:07:52;15.98;;;2.40;;
24161;SDS011;12318;51.262;7.066;2022-11-23T07:10:21;12.55;;;2.22;;
24161;SDS011;12318;51.262;7.066;2022-11-23T07:13:02;12.93;;;2.13;;
24161;SDS011;12318;51.262;7.066;2022-11-23T07:15:38;10.80;;;2.20;;
24161;SDS011;12318;51.262;7.066;2022-11-23T07:18:04;11.75;;;2.28;;
24161;SDS011;12318;51.262;7.066;2022-11-23T07:20:34;14.50;;;2.70;;
24161;SDS011;12318;51.262;7.066;2022-11-23T07:23:01;13.25;;;2.95;;
24161;SDS011;12318;51.262;7.066;2022-11-23T07:25:56;13.95;;;2.47;;
24161;SDS011;12318;51.262;7.066;2022-11-23T07:28:22;9.90;;;2.53;;
24161;SDS011;12318;51.262;7.066;2022-11-23T07:30:48;11.90;;;2.40;;
24161;SDS011;12318;51.262;7.066;2022-11-23T07:33:15;9.48;;;2.20;;
24161;SDS011;12318;51.262;7.066;2022-11-23T07:35:41;16.45;;;2.42;;
24161;SDS011;12318;51.262;7.066;2022-11-23T07:38:07;14.73;;;2.22;;
24161;SDS011;12318;51.262;7.066;2022-11-23T07:40:37;13.00;;;2.20;;
24161;SDS011;12318;51.262;7.066;2022-11-23T07:43:04;13.32;;;2.38;;
24161;SDS011;12318;51.262;7.066;2022-11-23T07:45:34;13.90;;;2.28;;
24161;SDS011;12318;51.262;7.066;2022-11-23T07:48:03;12.15;;;1.85;;
24161;SDS011;12318;51.262;7.066;2022-11-23T07:50:31;13.05;;;2.30;;
24161;SDS011;12318;51.262;7.066;2022-11-23T07:53:00;12.57;;;1.98;;
24161;SDS011;12318;51.262;7.066;2022-11-23T07:55:26;13.10;;;2.13;;
24161;SDS011;12318;51.262;7.066;2022-11-23T07:57:52;13.27;;;2.20;;
24161;SDS011;12318;51.262;7.066;2022-11-23T08:00:19;8.88;;;1.70;;
24161;SDS011;12318;51.262;7.066;2022-11-23T08:02:46;12.52;;;2.40;;
24161;SDS011;12318;51.262;7.066;2022-11-23T08:05:22;16.25;;;2.63;;
24161;SDS011;12318;51.262;7.066;2022-11-23T08:07:48;16.48;;;2.40;;
24161;SDS011;12318;51.262;7.066;2022-11-23T08:10:14;8.70;;;2.03;;
24161;SDS011;12318;51.262;7.066;2022-11-23T08:12:40;6.90;;;1.65;;
24161;SDS011;12318;51.262;7.066;2022-11-23T08:15:09;14.32;;;1.98;;
24161;SDS011;12318;51.262;7.066;2022-11-23T08:17:35;18.17;;;2.53;;
24161;SDS011;12318;51.262;7.066;2022-11-23T08:20:01;15.13;;;2.90;;
24161;SDS011;12318;51.262;7.066;2022-11-23T08:22:27;10.05;;;1.88;;
24161;SDS011;12318;51.262;7.066;2022-11-23T08:24:53;12.95;;;2.60;;
24161;SDS011;12318;51.262;7.066;2022-11-23T08:27:21;15.27;;;2.67;;
24161;SDS011;12318;51.262;7.066;2022-11-23T08:29:48;13.10;;;2.50;;
24161;SDS011;12318;51.262;7.066;2022-11-23T08:32:17;14.15;;;2.35;;
24161;SDS011;12318;51.262;7.066;2022-11-23T08:34:50;14.75;;;2.40;;
24161;SDS011;12318;51.262;7.066;2022-11-23T08:37:16;16.55;;;2.78;;
24161;SDS011;12318;51.262;7.066;2022-11-23T08:39:44;14.32;;;2.53;;
24161;SDS011;12318;51.262;7.066;2022-11-23T08:42:10;9.95;;;1.95;;
24161;SDS011;12318;51.262;7.066;2022-11-23T08:44:35;11.55;;;2.15;;
24161;SDS011;12318;51.262;7.066;2022-11-23T08:47:01;12.90;;;2.20;;
24161;SDS011;12318;51.262;7.066;2022-11-23T08:49:27;15.75;;;2.45;;
24161;SDS011;12318;51.262;7.066;2022-11-23T08:51:53;13.60;;;2.30;;
24161;SDS011;12318;51.262;7.066;2022-11-23T08:54:19;17.83;;;2.95;;
24161;SDS011;12318;51.262;7.066;2022-11-23T08:56:47;14.40;;;2.75;;
24161;SDS011;12318;51.262;7.066;2022-11-23T08:59:13;15.82;;;3.00;;
24161;SDS011;12318;51.262;7.066;2022-11-23T09:01:38;13.68;;;2.75;;
24161;SDS011;12318;51.262;7.066;2022-11-23T09:04:04;13.80;;;3.03;;
24161;SDS011;12318;51.262;7.066;2022-11-23T09:06:33;12.07;;;2.47;;
24161;SDS011;12318;51.262;7.066;2022-11-23T09:09:02;11.98;;;2.40;;
24161;SDS011;12318;51.262;7.066;2022-11-23T09:11:28;21.30;;;2.80;;
24161;SDS011;12318;51.262;7.066;2022-11-23T09:13:54;19.75;;;3.10;;
24161;SDS011;12318;51.262;7.066;2022-11-23T09:16:37;14.35;;;2.60;;
24161;SDS011;12318;51.262;7.066;2022-11-23T09:19:04;12.77;;;2.35;;
24161;SDS011;12318;51.262;7.066;2022-11-23T09:21:32;13.32;;;2.55;;
24161;SDS011;12318;51.262;7.066;2022-11-23T09:24:00;9.25;;;1.90;;
24161;SDS011;12318;51.262;7.066;2022-11-23T09:26:26;15.82;;;2.72;;
24161;SDS011;12318;51.262;7.066;2022-11-23T09:28:58;15.90;;;2.92;;
24161;SDS011;12318;51.262;7.066;2022-11-23T09:31:26;12.38;;;2.70;;
24161;SDS011;12318;51.262;7.066;2022-11-23T09:33:52;17.30;;;2.55;;
24161;SDS011;12318;51.262;7.066;2022-11-23T09:36:18;14.60;;;3.05;;
24161;SDS011;12318;51.262;7.066;2022-11-23T09:38:49;8.48;;;2.00;;
24161;SDS011;12318;51.262;7.066;2022-11-23T09:52:29;15.55;;;2.75;;
24161;SDS011;12318;51.262;7.066;2022-11-23T09:54:57;13.80;;;3.10;;
24161;SDS011;12318;51.262;7.066;2022-11-23T09:57:35;9.90;;;2.60;;
24161;SDS011;12318;51.262;7.066;2022-11-23T10:00:06;17.85;;;2.85;;
24161;SDS011;12318;51.262;7.066;2022-11-23T10:02:40;15.45;;;2.97;;
24161;SDS011;12318;51.262;7.066;2022-11-23T10:05:06;22.23;;;2.80;;
24161;SDS011;12318;51.262;7.066;2022-11-23T10:15:52;17.10;;;3.00;;
24161;SDS011;12318;51.262;7.066;2022-11-23T10:26:17;15.27;;;2.28;;
24161;SDS011;12318;51.262;7.066;2022-11-23T10:28:44;12.93;;;2.40;;
24161;SDS011;12318;51.262;7.066;2022-11-23T10:31:12;16.33;;;2.53;;
24161;SDS011;12318;51.262;7.066;2022-11-23T10:33:54;14.48;;;2.58;;
24161;SDS011;12318;51.262;7.066;2022-11-23T10:36:25;13.57;;;2.65;;
24161;SDS011;12318;51.262;7.066;2022-11-23T10:38:53;12.65;;;2.25;;
24161;SDS011;12318;51.262;7.066;2022-11-23T10:46:56;13.13;;;2.28;;
24161;SDS011;12318;51.262;7.066;2022-11-23T10:49:32;15.70;;;2.40;;
24161;SDS011;12318;51.262;7.066;2022-11-23T10:52:04;12.32;;;2.47;;
24161;SDS011;12318;51.262;7.066;2022-11-23T10:57:27;11.98;;;2.53;;
24161;SDS011;12318;51.262;7.066;2022-11-23T11:02:26;13.25;;;2.67;;
24161;SDS011;12318;51.262;7.066;2022-11-23T11:05:47;14.00;;;2.67;;
24161;SDS011;12318;51.262;7.066;2022-11-23T11:07:48;21.52;;;2.45;;
24161;SDS011;12318;51.262;7.066;2022-11-23T11:10:34;13.85;;;2.70;;
24161;SDS011;12318;51.262;7.066;2022-11-23T11:13:02;11.60;;;2.33;;
24161;SDS011;12318;51.262;7.066;2022-11-23T11:15:51;21.45;;;2.97;;
24161;SDS011;12318;51.262;7.066;2022-11-23T11:18:23;11.52;;;3.05;;
24161;SDS011;12318;51.262;7.066;2022-11-23T11:20:55;18.60;;;3.10;;
24161;SDS011;12318;51.262;7.066;2022-11-23T11:23:23;15.30;;;2.95;;
24161;SDS011;12318;51.262;7.066;2022-11-23T11:25:49;19.02;;;2.55;;
24161;SDS011;12318;51.262;7.066;2022-11-23T11:28:28;12.93;;;2.55;;
24161;SDS011;12318;51.262;7.066;2022-11-23T11:36:25;17.88;;;2.85;;
24161;SDS011;12318;51.262;7.066;2022-11-23T11:38:55;12.77;;;2.90;;
24161;SDS011;12318;51.262;7.066;2022-11-23T11:41:23;13.55;;;2.75;;
24161;SDS011;12318;51.262;7.066;2022-11-23T11:43:52;9.30;;;2.58;;
24161;SDS011;12318;51.262;7.066;2022-11-23T11:46:34;16.65;;;2.72;;
24161;SDS011;12318;51.262;7.066;2022-11-23T11:49:05;13.13;;;2.17;;
24161;SDS011;12318;51.262;7.066;2022-11-23T11:51:39;17.08;;;2.60;;
24161;SDS011;12318;51.262;7.066;2022-11-23T11:54:30;13.48;;;2.60;;
24161;SDS011;12318;51.262;7.066;2022-11-23T11:57:19;13.68;;;2.70;;
24161;SDS011;12318;51.262;7.066;2022-11-23T12:02:25;16.73;;;2.17;;
24161;SDS011;12318;51.262;7.066;2022-11-23T12:07:58;13.13;;;2.97;;
24161;SDS011;12318;51.262;7.066;2022-11-23T12:10:31;14.57;;;2.70;;
24161;SDS011;12318;51.262;7.066;2022-11-23T12:13:17;19.08;;;5.22;;
24161;SDS011;12318;51.262;7.066;2022-11-23T12:16:07;14.68;;;2.33;;
24161;SDS011;12318;51.262;7.066;2022-11-23T12:21:28;12.25;;;2.20;;
24161;SDS011;12318;51.262;7.066;2022-11-23T12:24:11;9.25;;;1.98;;
24161;SDS011;12318;51.262;7.066;2022-11-23T12:32:23;11.95;;;2.65;;
24161;SDS011;12318;51.262;7.066;2022-11-23T12:51:37;11.13;;;2.80;;
24161;SDS011;12318;51.262;7.066;2022-11-23T13:00:19;17.23;;;2.60;;
24161;SDS011;12318;51.262;7.066;2022-11-23T13:16:42;9.18;;;1.80;;
24161;SDS011;12318;51.262;7.066;2022-11-23T13:22:03;9.43;;;1.50;;
24161;SDS011;12318;51.262;7.066;2022-11-23T13:24:31;11.85;;;2.20;;
24161;SDS011;12318;51.262;7.066;2022-11-23T13:40:28;7.35;;;1.92;;
24161;SDS011;12318;51.262;7.066;2022-11-23T13:45:37;10.65;;;2.15;;
24161;SDS011;12318;51.262;7.066;2022-11-23T13:50:58;10.05;;;1.85;;
24161;SDS011;12318;51.262;7.066;2022-11-23T13:53:30;7.78;;;2.15;;
24161;SDS011;12318;51.262;7.066;2022-11-23T13:55:58;12.48;;;2.03;;
24161;SDS011;12318;51.262;7.066;2022-11-23T13:59:28;13.15;;;2.78;;
24161;SDS011;12318;51.262;7.066;2022-11-23T14:04:34;13.73;;;3.33;;
24161;SDS011;12318;51.262;7.066;2022-11-23T14:07:04;11.45;;;2.22;;
24161;SDS011;12318;51.262;7.066;2022-11-23T14:20:42;8.82;;;2.35;;
24161;SDS011;12318;51.262;7.066;2022-11-23T14:33:12;10.75;;;2.42;;
24161;SDS011;12318;51.262;7.066;2022-11-23T14:41:22;9.03;;;2.50;;
24161;SDS011;12318;51.262;7.066;2022-11-23T14:43:51;7.70;;;2.40;;
24161;SDS011;12318;51.262;7.066;2022-11-23T14:46:21;7.43;;;2.22;;
24161;SDS011;12318;51.262;7.066;2022-11-23T14:48:50;8.88;;;2.30;;
24161;SDS011;12318;51.262;7.066;2022-11-23T14:53:45;13.25;;;2.25;;
24161;SDS011;12318;51.262;7.066;2022-11-23T15:01:46;12.07;;;2.25;;
24161;SDS011;12318;51.262;7.066;2022-11-23T15:04:28;9.88;;;2.60;;
24161;SDS011;12318;51.262;7.066;2022-11-23T15:07:10;6.80;;;2.15;;
24161;SDS011;12318;51.262;7.066;2022-11-23T15:12:46;12.55;;;2.72;;
24161;SDS011;12318;51.262;7.066;2022-11-23T15:15:22;9.23;;;2.17;;
24161;SDS011;12318;51.262;7.066;2022-11-23T15:17:57;7.75;;;2.42;;
24161;SDS011;12318;51.262;7.066;2022-11-23T15:20:28;7.75;;;2.22;;
24161;SDS011;12318;51.262;7.066;2022-11-23T15:23:05;8.33;;;1.70;;
24161;SDS011;12318;51.262;7.066;2022-11-23T15:25:31;7.10;;;2.08;;
24161;SDS011;12318;51.262;7.066;2022-11-23T15:27:57;9.45;;;1.77;;
24161;SDS011;12318;51.262;7.066;2022-11-23T15:30:27;10.23;;;1.60;;
24161;SDS011;12318;51.262;7.066;2022-11-23T15:35:28;6.88;;;2.05;;
24161;SDS011;12318;51.262;7.066;2022-11-23T15:37:57;13.00;;;2.00;;
24161;SDS011;12318;51.262;7.066;2022-11-23T15:40:26;10.80;;;1.80;;
24161;SDS011;12318;51.262;7.066;2022-11-23T15:42:55;8.43;;;2.03;;
24161;SDS011;12318;51.262;7.066;2022-11-23T15:50:57;6.18;;;1.70;;
24161;SDS011;12318;51.262;7.066;2022-11-23T15:53:47;7.32;;;1.75;;
24161;SDS011;12318;51.262;7.066;2022-11-23T15:56:26;9.63;;;2.10;;
24161;SDS011;12318;51.262;7.066;2022-11-23T15:58:55;8.93;;;2.17;;
24161;SDS011;12318;51.262;7.066;2022-11-23T16:01:22;6.90;;;1.52;;
24161;SDS011;12318;51.262;7.066;2022-11-23T16:03:50;9.00;;;2.17;;
24161;SDS011;12318;51.262;7.066;2022-11-23T16:06:38;9.05;;;2.08;;
24161;SDS011;12318;51.262;7.066;2022-11-23T16:12:01;11.32;;;2.55;;
24161;SDS011;12318;51.262;7.066;2022-11-23T16:14:29;8.63;;;1.98;;
24161;SDS011;12318;51.262;7.066;2022-11-23T16:17:04;16.63;;;2.30;;
24161;SDS011;12318;51.262;7.066;2022-11-23T16:19:37;10.73;;;2.55;;
24161;SDS011;12318;51.262;7.066;2022-11-23T16:22:04;7.72;;;2.08;;
24161;SDS011;12318;51.262;7.066;2022-11-23T16:24:32;14.80;;;2.63;;
24161;SDS011;12318;51.262;7.066;2022-11-23T16:26:59;9.77;;;2.17;;
24161;SDS011;12318;51.262;7.066;2022-11-23T16:29:27;7.80;;;2.10;;
24161;SDS011;12318;51.262;7.066;2022-11-23T16:31:59;11.55;;;2.40;;
24161;SDS011;12318;51.262;7.066;2022-11-23T16:34:26;15.40;;;2.70;;
24161;SDS011;12318;51.262;7.066;2022-11-23T16:36:55;10.90;;;2.50;;
24161;SDS011;12318;51.262;7.066;2022-11-23T16:39:22;11.98;;;3.00;;
24161;SDS011;12318;51.262;7.066;2022-11-23T16:41:48;14.38;;;2.63;;
24161;SDS011;12318;51.262;7.066;2022-11-23T16:44:15;9.80;;;2.90;;
24161;SDS011;12318;51.262;7.066;2022-11-23T16:46:41;15.07;;;3.08;;
24161;SDS011;12318;51.262;7.066;2022-11-23T16:49:11;13.00;;;2.97;;
24161;SDS011;12318;51.262;7.066;2022-11-23T16:51:40;11.05;;;2.45;;
24161;SDS011;12318;51.262;7.066;2022-11-23T16:54:06;8.60;;;2.58;;
24161;SDS011;12318;51.262;7.066;2022-11-23T16:56:32;10.75;;;2.80;;
24161;SDS011;12318;51.262;7.066;2022-11-23T16:58:59;12.07;;;3.22;;
24161;SDS011;12318;51.262;7.066;2022-11-23T17:01:25;11.70;;;3.10;;
24161;SDS011;12318;51.262;7.066;2022-11-23T17:03:54;7.22;;;2.30;;
24161;SDS011;12318;51.262;7.066;2022-11-23T17:06:20;11.23;;;2.58;;
24161;SDS011;12318;51.262;7.066;2022-11-23T17:08:49;16.95;;;3.90;;
24161;SDS011;12318;51.262;7.066;2022-11-23T17:11:16;11.07;;;2.90;;
24161;SDS011;12318;51.262;7.066;2022-11-23T17:13:45;12.63;;;2.55;;
24161;SDS011;12318;51.262;7.066;2022-11-23T17:16:16;14.63;;;2.85;;
24161;SDS011;12318;51.262;7.066;2022-11-23T17:18:44;12.77;;;2.78;;
24161;SDS011;12318;51.262;7.066;2022-11-23T17:21:10;16.08;;;2.95;;
24161;SDS011;12318;51.262;7.066;2022-11-23T17:23:37;15.13;;;2.40;;
24161;SDS011;12318;51.262;7.066;2022-11-23T17:28:59;11.38;;;2.70;;
24161;SDS011;12318;51.262;7.066;2022-11-23T17:31:28;11.15;;;2.60;;
24161;SDS011;12318;51.262;7.066;2022-11-23T17:33:54;13.15;;;2.90;;
24161;SDS011;12318;51.262;7.066;2022-11-23T17:36:20;10.93;;;3.35;;
24161;SDS011;12318;51.262;7.066;2022-11-23T17:38:46;11.98;;;2.75;;
24161;SDS011;12318;51.262;7.066;2022-11-23T17:41:14;10.52;;;2.45;;
24161;SDS011;12318;51.262;7.066;2022-11-23T17:43:40;9.38;;;2.50;;
24161;SDS011;12318;51.262;7.066;2022-11-23T17:46:10;10.15;;;2.97;;